sensor_id;sensor_type;location;lat;lon;timestamp;P1;durP1;ratioP1;P2;durP2;ratioP2
72437;SDS011;60444;43.534;-5.674;2023-04-06T00:01:30;7.70;;;3.40;;
72437;SDS011;60444;43.534;-5.674;2023-04-06T00:03:55;9.10;;;3.93;;
72437;SDS011;60444;43.534;-5.674;2023-04-06T00:06:21;6.53;;;3.00;;
72437;SDS011;60444;43.534;-5.674;2023-04-06T00:08:46;6.20;;;2.63;;
72437;SDS011;60444;43.534;-5.674;2023-04-06T00:11:12;8.27;;;3.07;;
72437;SDS011;60444;43.534;-5.674;2023-04-06T00:13:37;5.95;;;2.80;;
72437;SDS011;60444;43.534;-5.674;2023-04-06T00:16:03;9.73;;;5.23;;
72437;SDS011;60444;43.534;-5.674;2023-04-06T00:18:30;10.73;;;4.97;;
72437;SDS011;60444;43.534;-5.674;2023-04-06T00:20:56;7.57;;;3.45;;
72437;SDS011;60444;43.534;-5.674;2023-04-06T00:23:22;7.07;;;2.63;;
72437;SDS011;60444;43.534;-5.674;2023-04-06T00:25:47;6.83;;;2.83;;
72437;SDS011;60444;43.534;-5.674;2023-04-06T00:28:13;6.45;;;3.00;;
72437;SDS011;60444;43.534;-5.674;2023-04-06T00:30:38;7.33;;;3.00;;
72437;SDS011;60444;43.534;-5.674;2023-04-06T00:33:06;7.60;;;3.15;;
72437;SDS011;60444;43.534;-5.674;2023-04-06T00:35:31;5.90;;;2.93;;
72437;SDS011;60444;43.534;-5.674;2023-04-06T00:37:57;6.30;;;2.93;;
72437;SDS011;60444;43.534;-5.674;2023-04-06T00:40:22;7.50;;;3.63;;
72437;SDS011;60444;43.534;-5.674;2023-04-06T00:42:48;6.83;;;3.13;;
72437;SDS011;60444;43.534;-5.674;2023-04-06T00:45:14;8.38;;;3.75;;
72437;SDS011;60444;43.534;-5.674;2023-04-06T00:47:40;6.95;;;2.97;;
72437;SDS011;60444;43.534;-5.674;2023-04-06T00:50:05;7.10;;;3.00;;
72437;SDS011;60444;43.534;-5.674;2023-04-06T00:52:32;7.32;;;3.13;;
72437;SDS011;60444;43.534;-5.674;2023-04-06T00:54:59;7.38;;;3.70;;
72437;SDS011;60444;43.534;-5.674;2023-04-06T00:57:24;6.47;;;2.90;;
72437;SDS011;60444;43.534;-5.674;2023-04-06T00:59:50;7.40;;;3.27;;
72437;SDS011;60444;43.534;-5.674;2023-04-06T01:02:17;6.97;;;3.38;;
72437;SDS011;60444;43.534;-5.674;2023-04-06T01:04:43;7.80;;;3.55;;
72437;SDS011;60444;43.534;-5.674;2023-04-06T01:07:09;7.20;;;3.40;;
72437;SDS011;60444;43.534;-5.674;2023-04-06T01:09:35;7.28;;;3.13;;
72437;SDS011;60444;43.534;-5.674;2023-04-06T01:12:00;7.90;;;2.97;;
72437;SDS011;60444;43.534;-5.674;2023-04-06T01:14:26;7.20;;;3.30;;
72437;SDS011;60444;43.534;-5.674;2023-04-06T01:16:52;7.50;;;3.30;;
72437;SDS011;60444;43.534;-5.674;2023-04-06T01:19:18;7.07;;;3.05;;
72437;SDS011;60444;43.534;-5.674;2023-04-06T01:21:43;8.17;;;3.50;;
72437;SDS011;60444;43.534;-5.674;2023-04-06T01:24:09;8.98;;;3.60;;
72437;SDS011;60444;43.534;-5.674;2023-04-06T01:26:35;7.63;;;3.50;;
72437;SDS011;60444;43.534;-5.674;2023-04-06T01:29:02;7.30;;;3.30;;
72437;SDS011;60444;43.534;-5.674;2023-04-06T01:31:28;7.75;;;3.50;;
72437;SDS011;60444;43.534;-5.674;2023-04-06T01:33:54;9.27;;;3.95;;
72437;SDS011;60444;43.534;-5.674;2023-04-06T01:36:20;8.63;;;3.58;;
72437;SDS011;60444;43.534;-5.674;2023-04-06T01:38:46;7.37;;;3.33;;
72437;SDS011;60444;43.534;-5.674;2023-04-06T01:41:11;8.00;;;3.88;;
72437;SDS011;60444;43.534;-5.674;2023-04-06T01:43:37;7.70;;;3.43;;
72437;SDS011;60444;43.534;-5.674;2023-04-06T01:46:03;9.23;;;3.85;;
72437;SDS011;60444;43.534;-5.674;2023-04-06T01:48:31;7.30;;;3.10;;
72437;SDS011;60444;43.534;-5.674;2023-04-06T01:50:57;7.88;;;3.75;;
72437;SDS011;60444;43.534;-5.674;2023-04-06T01:53:23;8.37;;;3.70;;
72437;SDS011;60444;43.534;-5.674;2023-04-06T01:55:48;8.33;;;3.50;;
72437;SDS011;60444;43.534;-5.674;2023-04-06T01:58:14;7.30;;;3.13;;
72437;SDS011;60444;43.534;-5.674;2023-04-06T02:00:39;6.93;;;3.23;;
72437;SDS011;60444;43.534;-5.674;2023-04-06T02:03:05;7.20;;;3.33;;
72437;SDS011;60444;43.534;-5.674;2023-04-06T02:05:31;9.63;;;4.87;;
72437;SDS011;60444;43.534;-5.674;2023-04-06T02:08:04;8.57;;;3.42;;
72437;SDS011;60444;43.534;-5.674;2023-04-06T02:10:30;8.55;;;3.33;;
72437;SDS011;60444;43.534;-5.674;2023-04-06T02:12:56;9.48;;;4.13;;
72437;SDS011;60444;43.534;-5.674;2023-04-06T02:15:22;10.17;;;4.23;;
72437;SDS011;60444;43.534;-5.674;2023-04-06T02:17:48;8.65;;;3.80;;
72437;SDS011;60444;43.534;-5.674;2023-04-06T02:20:13;9.07;;;4.27;;
72437;SDS011;60444;43.534;-5.674;2023-04-06T02:22:39;9.40;;;4.23;;
72437;SDS011;60444;43.534;-5.674;2023-04-06T02:25:05;7.72;;;2.97;;
72437;SDS011;60444;43.534;-5.674;2023-04-06T02:27:31;8.85;;;3.47;;
72437;SDS011;60444;43.534;-5.674;2023-04-06T02:29:56;8.63;;;3.73;;
72437;SDS011;60444;43.534;-5.674;2023-04-06T02:32:22;8.40;;;3.60;;
72437;SDS011;60444;43.534;-5.674;2023-04-06T02:34:47;8.48;;;3.85;;
72437;SDS011;60444;43.534;-5.674;2023-04-06T02:37:13;7.00;;;3.33;;
72437;SDS011;60444;43.534;-5.674;2023-04-06T02:39:39;7.47;;;3.20;;
72437;SDS011;60444;43.534;-5.674;2023-04-06T02:42:05;7.80;;;3.35;;
72437;SDS011;60444;43.534;-5.674;2023-04-06T02:44:31;8.00;;;3.67;;
72437;SDS011;60444;43.534;-5.674;2023-04-06T02:46:56;8.10;;;3.67;;
72437;SDS011;60444;43.534;-5.674;2023-04-06T02:49:22;8.20;;;3.80;;
72437;SDS011;60444;43.534;-5.674;2023-04-06T02:51:47;6.93;;;3.40;;
72437;SDS011;60444;43.534;-5.674;2023-04-06T02:54:13;8.77;;;3.92;;
72437;SDS011;60444;43.534;-5.674;2023-04-06T02:56:38;8.90;;;4.30;;
72437;SDS011;60444;43.534;-5.674;2023-04-06T02:59:04;9.00;;;3.40;;
72437;SDS011;60444;43.534;-5.674;2023-04-06T03:01:30;8.13;;;3.65;;
72437;SDS011;60444;43.534;-5.674;2023-04-06T03:03:56;10.48;;;4.07;;
72437;SDS011;60444;43.534;-5.674;2023-04-06T03:06:22;9.07;;;4.57;;
72437;SDS011;60444;43.534;-5.674;2023-04-06T03:08:47;9.53;;;4.00;;
72437;SDS011;60444;43.534;-5.674;2023-04-06T03:11:13;8.73;;;4.15;;
72437;SDS011;60444;43.534;-5.674;2023-04-06T03:13:38;8.83;;;3.87;;
72437;SDS011;60444;43.534;-5.674;2023-04-06T03:16:04;8.38;;;4.10;;
72437;SDS011;60444;43.534;-5.674;2023-04-06T03:18:31;8.00;;;4.13;;
72437;SDS011;60444;43.534;-5.674;2023-04-06T03:20:57;7.78;;;4.03;;
72437;SDS011;60444;43.534;-5.674;2023-04-06T03:23:22;8.87;;;3.90;;
72437;SDS011;60444;43.534;-5.674;2023-04-06T03:25:48;8.23;;;3.63;;
72437;SDS011;60444;43.534;-5.674;2023-04-06T03:28:14;10.50;;;5.10;;
72437;SDS011;60444;43.534;-5.674;2023-04-06T03:30:39;9.60;;;4.63;;
72437;SDS011;60444;43.534;-5.674;2023-04-06T03:33:05;7.43;;;3.60;;
72437;SDS011;60444;43.534;-5.674;2023-04-06T03:35:31;7.93;;;3.88;;
72437;SDS011;60444;43.534;-5.674;2023-04-06T03:37:56;10.07;;;4.10;;
72437;SDS011;60444;43.534;-5.674;2023-04-06T03:40:22;9.63;;;3.80;;
72437;SDS011;60444;43.534;-5.674;2023-04-06T03:42:48;10.23;;;4.47;;
72437;SDS011;60444;43.534;-5.674;2023-04-06T03:45:13;8.77;;;4.65;;
72437;SDS011;60444;43.534;-5.674;2023-04-06T03:47:39;10.73;;;4.93;;
72437;SDS011;60444;43.534;-5.674;2023-04-06T03:50:05;9.55;;;4.30;;
72437;SDS011;60444;43.534;-5.674;2023-04-06T03:52:31;8.30;;;3.97;;
72437;SDS011;60444;43.534;-5.674;2023-04-06T03:54:56;8.32;;;4.13;;
72437;SDS011;60444;43.534;-5.674;2023-04-06T03:57:22;8.70;;;4.37;;
72437;SDS011;60444;43.534;-5.674;2023-04-06T03:59:47;8.20;;;3.70;;
72437;SDS011;60444;43.534;-5.674;2023-04-06T04:02:13;8.70;;;4.10;;
72437;SDS011;60444;43.534;-5.674;2023-04-06T04:04:38;10.23;;;5.07;;
72437;SDS011;60444;43.534;-5.674;2023-04-06T04:07:05;9.18;;;4.30;;
72437;SDS011;60444;43.534;-5.674;2023-04-06T04:09:31;8.57;;;4.33;;
72437;SDS011;60444;43.534;-5.674;2023-04-06T04:11:56;11.48;;;4.60;;
72437;SDS011;60444;43.534;-5.674;2023-04-06T04:14:22;10.60;;;4.03;;
72437;SDS011;60444;43.534;-5.674;2023-04-06T04:16:47;10.07;;;4.47;;
72437;SDS011;60444;43.534;-5.674;2023-04-06T04:19:13;8.40;;;4.00;;
72437;SDS011;60444;43.534;-5.674;2023-04-06T04:21:42;7.57;;;3.97;;
72437;SDS011;60444;43.534;-5.674;2023-04-06T04:24:09;9.65;;;4.50;;
72437;SDS011;60444;43.534;-5.674;2023-04-06T04:26:35;9.97;;;4.53;;
72437;SDS011;60444;43.534;-5.674;2023-04-06T04:29:02;9.87;;;4.63;;
72437;SDS011;60444;43.534;-5.674;2023-04-06T04:31:27;9.73;;;4.60;;
72437;SDS011;60444;43.534;-5.674;2023-04-06T04:33:53;10.17;;;4.30;;
72437;SDS011;60444;43.534;-5.674;2023-04-06T04:36:18;8.50;;;4.73;;
72437;SDS011;60444;43.534;-5.674;2023-04-06T04:38:44;8.13;;;3.75;;
72437;SDS011;60444;43.534;-5.674;2023-04-06T04:41:10;13.10;;;4.90;;
72437;SDS011;60444;43.534;-5.674;2023-04-06T04:43:35;9.50;;;4.43;;
72437;SDS011;60444;43.534;-5.674;2023-04-06T04:46:01;10.23;;;4.77;;
72437;SDS011;60444;43.534;-5.674;2023-04-06T04:48:26;10.00;;;4.30;;
72437;SDS011;60444;43.534;-5.674;2023-04-06T04:50:52;8.73;;;4.23;;
72437;SDS011;60444;43.534;-5.674;2023-04-06T04:53:20;10.13;;;5.00;;
72437;SDS011;60444;43.534;-5.674;2023-04-06T04:55:45;12.57;;;5.30;;
72437;SDS011;60444;43.534;-5.674;2023-04-06T04:58:11;10.40;;;5.33;;
72437;SDS011;60444;43.534;-5.674;2023-04-06T05:00:40;9.13;;;4.25;;
72437;SDS011;60444;43.534;-5.674;2023-04-06T05:03:05;8.70;;;4.33;;
72437;SDS011;60444;43.534;-5.674;2023-04-06T05:05:31;8.50;;;4.50;;
72437;SDS011;60444;43.534;-5.674;2023-04-06T05:07:57;9.85;;;5.35;;
72437;SDS011;60444;43.534;-5.674;2023-04-06T05:10:22;9.67;;;5.40;;
72437;SDS011;60444;43.534;-5.674;2023-04-06T05:12:48;12.20;;;5.17;;
72437;SDS011;60444;43.534;-5.674;2023-04-06T05:15:13;11.30;;;5.53;;
72437;SDS011;60444;43.534;-5.674;2023-04-06T05:17:39;9.90;;;5.05;;
72437;SDS011;60444;43.534;-5.674;2023-04-06T05:20:05;12.53;;;4.73;;
72437;SDS011;60444;43.534;-5.674;2023-04-06T05:22:31;8.77;;;4.65;;
72437;SDS011;60444;43.534;-5.674;2023-04-06T05:24:56;11.43;;;4.67;;
72437;SDS011;60444;43.534;-5.674;2023-04-06T05:27:22;9.32;;;4.75;;
72437;SDS011;60444;43.534;-5.674;2023-04-06T05:29:48;8.53;;;4.50;;
72437;SDS011;60444;43.534;-5.674;2023-04-06T05:32:14;11.30;;;5.50;;
72437;SDS011;60444;43.534;-5.674;2023-04-06T05:34:39;11.73;;;5.20;;
72437;SDS011;60444;43.534;-5.674;2023-04-06T05:37:05;12.32;;;5.35;;
72437;SDS011;60444;43.534;-5.674;2023-04-06T05:39:30;9.57;;;4.83;;
72437;SDS011;60444;43.534;-5.674;2023-04-06T05:41:56;10.50;;;4.23;;
72437;SDS011;60444;43.534;-5.674;2023-04-06T05:44:21;11.40;;;5.30;;
72437;SDS011;60444;43.534;-5.674;2023-04-06T05:46:47;11.70;;;5.30;;
72437;SDS011;60444;43.534;-5.674;2023-04-06T05:49:12;12.00;;;5.23;;
72437;SDS011;60444;43.534;-5.674;2023-04-06T05:51:38;9.88;;;5.18;;
72437;SDS011;60444;43.534;-5.674;2023-04-06T05:54:03;9.43;;;4.37;;
72437;SDS011;60444;43.534;-5.674;2023-04-06T05:56:29;13.43;;;6.03;;
72437;SDS011;60444;43.534;-5.674;2023-04-06T05:58:56;8.98;;;5.15;;
72437;SDS011;60444;43.534;-5.674;2023-04-06T06:01:22;11.65;;;5.22;;
72437;SDS011;60444;43.534;-5.674;2023-04-06T06:03:47;10.37;;;4.37;;
72437;SDS011;60444;43.534;-5.674;2023-04-06T06:06:13;11.73;;;4.80;;
72437;SDS011;60444;43.534;-5.674;2023-04-06T06:08:38;9.70;;;4.88;;
72437;SDS011;60444;43.534;-5.674;2023-04-06T06:11:04;11.93;;;5.43;;
72437;SDS011;60444;43.534;-5.674;2023-04-06T06:13:30;9.50;;;4.80;;
72437;SDS011;60444;43.534;-5.674;2023-04-06T06:15:55;11.07;;;5.20;;
72437;SDS011;60444;43.534;-5.674;2023-04-06T06:18:21;10.17;;;5.00;;
72437;SDS011;60444;43.534;-5.674;2023-04-06T06:20:46;9.93;;;4.43;;
72437;SDS011;60444;43.534;-5.674;2023-04-06T06:23:12;9.00;;;4.72;;
72437;SDS011;60444;43.534;-5.674;2023-04-06T06:25:37;9.07;;;4.17;;
72437;SDS011;60444;43.534;-5.674;2023-04-06T06:28:03;11.63;;;4.77;;
72437;SDS011;60444;43.534;-5.674;2023-04-06T06:30:28;10.77;;;4.97;;
72437;SDS011;60444;43.534;-5.674;2023-04-06T06:32:56;11.00;;;4.40;;
72437;SDS011;60444;43.534;-5.674;2023-04-06T06:35:21;10.50;;;4.80;;
72437;SDS011;60444;43.534;-5.674;2023-04-06T06:37:47;10.57;;;4.37;;
72437;SDS011;60444;43.534;-5.674;2023-04-06T06:40:15;11.15;;;4.90;;
72437;SDS011;60444;43.534;-5.674;2023-04-06T06:42:42;9.60;;;4.70;;
72437;SDS011;60444;43.534;-5.674;2023-04-06T06:45:09;10.73;;;4.87;;
72437;SDS011;60444;43.534;-5.674;2023-04-06T06:47:35;9.75;;;5.40;;
72437;SDS011;60444;43.534;-5.674;2023-04-06T06:50:00;8.73;;;4.17;;
72437;SDS011;60444;43.534;-5.674;2023-04-06T06:52:28;10.20;;;4.85;;
72437;SDS011;60444;43.534;-5.674;2023-04-06T06:54:53;9.13;;;4.18;;
72437;SDS011;60444;43.534;-5.674;2023-04-06T06:57:19;10.37;;;4.43;;
72437;SDS011;60444;43.534;-5.674;2023-04-06T06:59:45;10.30;;;4.93;;
72437;SDS011;60444;43.534;-5.674;2023-04-06T07:02:10;8.57;;;4.30;;
72437;SDS011;60444;43.534;-5.674;2023-04-06T07:04:36;11.40;;;4.80;;
72437;SDS011;60444;43.534;-5.674;2023-04-06T07:07:01;7.90;;;4.22;;
72437;SDS011;60444;43.534;-5.674;2023-04-06T07:09:27;8.77;;;4.23;;
72437;SDS011;60444;43.534;-5.674;2023-04-06T07:11:52;10.17;;;4.90;;
72437;SDS011;60444;43.534;-5.674;2023-04-06T07:14:18;9.55;;;4.72;;
72437;SDS011;60444;43.534;-5.674;2023-04-06T07:16:43;9.40;;;4.10;;
72437;SDS011;60444;43.534;-5.674;2023-04-06T07:19:10;9.05;;;4.60;;
72437;SDS011;60444;43.534;-5.674;2023-04-06T07:21:36;9.75;;;4.85;;
72437;SDS011;60444;43.534;-5.674;2023-04-06T07:24:01;11.03;;;4.10;;
72437;SDS011;60444;43.534;-5.674;2023-04-06T07:26:27;11.73;;;4.43;;
72437;SDS011;60444;43.534;-5.674;2023-04-06T07:28:53;11.90;;;4.50;;
72437;SDS011;60444;43.534;-5.674;2023-04-06T07:31:18;10.97;;;4.50;;
72437;SDS011;60444;43.534;-5.674;2023-04-06T07:33:45;9.48;;;3.65;;
72437;SDS011;60444;43.534;-5.674;2023-04-06T07:36:12;10.70;;;4.63;;
72437;SDS011;60444;43.534;-5.674;2023-04-06T07:38:37;10.10;;;4.40;;
72437;SDS011;60444;43.534;-5.674;2023-04-06T07:41:03;8.83;;;3.93;;
72437;SDS011;60444;43.534;-5.674;2023-04-06T07:43:29;8.95;;;3.88;;
72437;SDS011;60444;43.534;-5.674;2023-04-06T07:45:55;10.90;;;4.55;;
72437;SDS011;60444;43.534;-5.674;2023-04-06T07:48:22;7.90;;;4.28;;
72437;SDS011;60444;43.534;-5.674;2023-04-06T07:50:48;7.90;;;4.15;;
72437;SDS011;60444;43.534;-5.674;2023-04-06T07:53:14;8.70;;;4.07;;
72437;SDS011;60444;43.534;-5.674;2023-04-06T07:55:40;7.65;;;3.60;;
72437;SDS011;60444;43.534;-5.674;2023-04-06T07:58:06;7.30;;;3.60;;
72437;SDS011;60444;43.534;-5.674;2023-04-06T08:00:31;7.28;;;3.05;;
72437;SDS011;60444;43.534;-5.674;2023-04-06T08:02:57;8.70;;;4.20;;
72437;SDS011;60444;43.534;-5.674;2023-04-06T08:05:22;8.03;;;3.97;;
72437;SDS011;60444;43.534;-5.674;2023-04-06T08:07:48;8.77;;;3.42;;
72437;SDS011;60444;43.534;-5.674;2023-04-06T08:10:13;8.70;;;4.03;;
72437;SDS011;60444;43.534;-5.674;2023-04-06T08:12:39;9.33;;;3.93;;
72437;SDS011;60444;43.534;-5.674;2023-04-06T08:15:05;7.95;;;3.80;;
72437;SDS011;60444;43.534;-5.674;2023-04-06T08:17:33;7.87;;;3.87;;
72437;SDS011;60444;43.534;-5.674;2023-04-06T08:20:00;9.73;;;4.90;;
72437;SDS011;60444;43.534;-5.674;2023-04-06T08:22:25;9.43;;;4.03;;
72437;SDS011;60444;43.534;-5.674;2023-04-06T08:24:51;8.60;;;3.27;;
72437;SDS011;60444;43.534;-5.674;2023-04-06T08:27:16;7.40;;;3.67;;
72437;SDS011;60444;43.534;-5.674;2023-04-06T08:29:42;8.75;;;4.07;;
72437;SDS011;60444;43.534;-5.674;2023-04-06T08:32:08;8.23;;;3.90;;
72437;SDS011;60444;43.534;-5.674;2023-04-06T08:34:34;8.20;;;3.45;;
72437;SDS011;60444;43.534;-5.674;2023-04-06T08:36:59;9.05;;;3.45;;
72437;SDS011;60444;43.534;-5.674;2023-04-06T08:39:25;8.70;;;3.43;;
72437;SDS011;60444;43.534;-5.674;2023-04-06T08:41:52;9.05;;;3.42;;
72437;SDS011;60444;43.534;-5.674;2023-04-06T08:44:22;8.52;;;3.30;;
72437;SDS011;60444;43.534;-5.674;2023-04-06T08:46:47;7.63;;;3.03;;
72437;SDS011;60444;43.534;-5.674;2023-04-06T08:49:15;9.90;;;3.87;;
72437;SDS011;60444;43.534;-5.674;2023-04-06T08:51:41;10.02;;;4.63;;
72437;SDS011;60444;43.534;-5.674;2023-04-06T08:54:07;7.93;;;3.67;;
72437;SDS011;60444;43.534;-5.674;2023-04-06T08:56:36;6.83;;;3.10;;
72437;SDS011;60444;43.534;-5.674;2023-04-06T08:59:03;7.13;;;2.73;;
72437;SDS011;60444;43.534;-5.674;2023-04-06T09:01:30;8.15;;;2.95;;
72437;SDS011;60444;43.534;-5.674;2023-04-06T09:03:59;6.70;;;3.38;;
72437;SDS011;60444;43.534;-5.674;2023-04-06T09:06:26;8.68;;;3.28;;
72437;SDS011;60444;43.534;-5.674;2023-04-06T09:08:56;8.93;;;3.07;;
72437;SDS011;60444;43.534;-5.674;2023-04-06T09:11:23;6.63;;;2.78;;
72437;SDS011;60444;43.534;-5.674;2023-04-06T09:13:52;8.15;;;3.40;;
72437;SDS011;60444;43.534;-5.674;2023-04-06T09:16:22;8.63;;;4.18;;
72437;SDS011;60444;43.534;-5.674;2023-04-06T09:18:50;8.47;;;3.70;;
72437;SDS011;60444;43.534;-5.674;2023-04-06T09:21:17;8.65;;;4.07;;
72437;SDS011;60444;43.534;-5.674;2023-04-06T09:23:43;9.13;;;3.88;;
72437;SDS011;60444;43.534;-5.674;2023-04-06T09:26:10;8.17;;;3.57;;
72437;SDS011;60444;43.534;-5.674;2023-04-06T09:28:56;7.65;;;3.53;;
72437;SDS011;60444;43.534;-5.674;2023-04-06T09:31:23;7.32;;;3.38;;
72437;SDS011;60444;43.534;-5.674;2023-04-06T09:33:50;9.20;;;3.45;;
72437;SDS011;60444;43.534;-5.674;2023-04-06T09:36:17;8.70;;;3.50;;
72437;SDS011;60444;43.534;-5.674;2023-04-06T09:38:56;7.32;;;2.90;;
72437;SDS011;60444;43.534;-5.674;2023-04-06T09:41:29;6.78;;;3.10;;
72437;SDS011;60444;43.534;-5.674;2023-04-06T09:44:09;7.38;;;2.90;;
72437;SDS011;60444;43.534;-5.674;2023-04-06T09:46:36;6.70;;;2.75;;
72437;SDS011;60444;43.534;-5.674;2023-04-06T09:49:04;8.30;;;3.83;;
72437;SDS011;60444;43.534;-5.674;2023-04-06T09:51:31;7.18;;;2.90;;
72437;SDS011;60444;43.534;-5.674;2023-04-06T09:54:02;10.57;;;3.83;;
72437;SDS011;60444;43.534;-5.674;2023-04-06T09:56:33;9.77;;;4.22;;
72437;SDS011;60444;43.534;-5.674;2023-04-06T09:59:10;10.20;;;4.22;;
72437;SDS011;60444;43.534;-5.674;2023-04-06T10:01:39;9.57;;;4.97;;
72437;SDS011;60444;43.534;-5.674;2023-04-06T10:07:14;11.55;;;5.13;;
72437;SDS011;60444;43.534;-5.674;2023-04-06T10:09:42;12.35;;;5.55;;
72437;SDS011;60444;43.534;-5.674;2023-04-06T10:12:11;11.70;;;5.20;;
72437;SDS011;60444;43.534;-5.674;2023-04-06T10:14:38;11.15;;;4.30;;
72437;SDS011;60444;43.534;-5.674;2023-04-06T10:17:04;11.75;;;4.72;;
72437;SDS011;60444;43.534;-5.674;2023-04-06T10:22:18;11.17;;;4.00;;
72437;SDS011;60444;43.534;-5.674;2023-04-06T10:24:51;11.57;;;4.22;;
72437;SDS011;60444;43.534;-5.674;2023-04-06T10:27:17;9.98;;;3.30;;
72437;SDS011;60444;43.534;-5.674;2023-04-06T10:29:53;10.10;;;3.60;;
72437;SDS011;60444;43.534;-5.674;2023-04-06T10:32:19;7.22;;;3.20;;
72437;SDS011;60444;43.534;-5.674;2023-04-06T10:34:45;9.87;;;3.13;;
72437;SDS011;60444;43.534;-5.674;2023-04-06T10:37:14;8.30;;;3.25;;
72437;SDS011;60444;43.534;-5.674;2023-04-06T10:39:52;10.48;;;3.80;;
72437;SDS011;60444;43.534;-5.674;2023-04-06T10:42:36;9.40;;;3.43;;
72437;SDS011;60444;43.534;-5.674;2023-04-06T10:45:06;10.68;;;3.28;;
72437;SDS011;60444;43.534;-5.674;2023-04-06T10:47:42;6.57;;;3.08;;
72437;SDS011;60444;43.534;-5.674;2023-04-06T10:50:07;7.13;;;2.88;;
72437;SDS011;60444;43.534;-5.674;2023-04-06T10:52:33;10.13;;;3.87;;
72437;SDS011;60444;43.534;-5.674;2023-04-06T10:54:59;8.90;;;3.60;;
72437;SDS011;60444;43.534;-5.674;2023-04-06T10:57:28;7.95;;;3.30;;
72437;SDS011;60444;43.534;-5.674;2023-04-06T10:59:55;8.38;;;3.13;;
72437;SDS011;60444;43.534;-5.674;2023-04-06T11:02:21;8.53;;;2.77;;
72437;SDS011;60444;43.534;-5.674;2023-04-06T11:04:56;7.90;;;2.83;;
72437;SDS011;60444;43.534;-5.674;2023-04-06T11:07:23;8.50;;;3.65;;
72437;SDS011;60444;43.534;-5.674;2023-04-06T11:09:54;6.32;;;2.95;;
72437;SDS011;60444;43.534;-5.674;2023-04-06T11:14:59;7.88;;;2.83;;
72437;SDS011;60444;43.534;-5.674;2023-04-06T11:17:29;8.50;;;2.85;;
72437;SDS011;60444;43.534;-5.674;2023-04-06T11:19:56;8.27;;;2.80;;
72437;SDS011;60444;43.534;-5.674;2023-04-06T11:22:24;6.93;;;2.80;;
72437;SDS011;60444;43.534;-5.674;2023-04-06T11:24:51;7.40;;;2.93;;
72437;SDS011;60444;43.534;-5.674;2023-04-06T11:27:17;7.20;;;2.63;;
72437;SDS011;60444;43.534;-5.674;2023-04-06T11:29:44;8.55;;;3.22;;
72437;SDS011;60444;43.534;-5.674;2023-04-06T11:32:20;8.95;;;3.05;;
72437;SDS011;60444;43.534;-5.674;2023-04-06T11:34:47;8.32;;;3.25;;
72437;SDS011;60444;43.534;-5.674;2023-04-06T11:37:13;10.93;;;3.37;;
72437;SDS011;60444;43.534;-5.674;2023-04-06T11:39:40;6.63;;;2.70;;
72437;SDS011;60444;43.534;-5.674;2023-04-06T11:42:08;8.63;;;3.03;;
72437;SDS011;60444;43.534;-5.674;2023-04-06T11:44:38;8.52;;;3.08;;
72437;SDS011;60444;43.534;-5.674;2023-04-06T11:47:05;9.80;;;2.78;;
72437;SDS011;60444;43.534;-5.674;2023-04-06T11:49:32;10.30;;;3.17;;
72437;SDS011;60444;43.534;-5.674;2023-04-06T11:52:02;11.93;;;3.05;;
72437;SDS011;60444;43.534;-5.674;2023-04-06T11:54:38;6.57;;;3.17;;
72437;SDS011;60444;43.534;-5.674;2023-04-06T11:57:04;9.45;;;3.00;;
72437;SDS011;60444;43.534;-5.674;2023-04-06T11:59:31;10.00;;;4.13;;
72437;SDS011;60444;43.534;-5.674;2023-04-06T12:01:57;8.13;;;3.00;;
72437;SDS011;60444;43.534;-5.674;2023-04-06T12:04:23;8.65;;;3.10;;
72437;SDS011;60444;43.534;-5.674;2023-04-06T12:06:49;8.52;;;2.92;;
72437;SDS011;60444;43.534;-5.674;2023-04-06T12:09:16;8.15;;;3.40;;
72437;SDS011;60444;43.534;-5.674;2023-04-06T12:11:45;7.47;;;3.17;;
72437;SDS011;60444;43.534;-5.674;2023-04-06T12:14:11;7.60;;;3.10;;
72437;SDS011;60444;43.534;-5.674;2023-04-06T12:16:37;7.03;;;2.90;;
72437;SDS011;60444;43.534;-5.674;2023-04-06T12:19:03;8.50;;;3.10;;
72437;SDS011;60444;43.534;-5.674;2023-04-06T12:21:28;7.37;;;2.83;;
72437;SDS011;60444;43.534;-5.674;2023-04-06T12:23:56;7.63;;;2.90;;
72437;SDS011;60444;43.534;-5.674;2023-04-06T12:26:21;14.30;;;3.78;;
72437;SDS011;60444;43.534;-5.674;2023-04-06T12:28:47;10.33;;;3.27;;
72437;SDS011;60444;43.534;-5.674;2023-04-06T12:31:16;7.18;;;3.00;;
72437;SDS011;60444;43.534;-5.674;2023-04-06T12:33:48;8.70;;;2.67;;
72437;SDS011;60444;43.534;-5.674;2023-04-06T12:36:18;8.10;;;3.03;;
72437;SDS011;60444;43.534;-5.674;2023-04-06T12:38:46;8.20;;;2.80;;
72437;SDS011;60444;43.534;-5.674;2023-04-06T12:41:13;8.60;;;2.90;;
72437;SDS011;60444;43.534;-5.674;2023-04-06T12:43:39;6.33;;;2.43;;
72437;SDS011;60444;43.534;-5.674;2023-04-06T12:46:05;8.77;;;2.83;;
72437;SDS011;60444;43.534;-5.674;2023-04-06T12:48:31;7.38;;;3.17;;
72437;SDS011;60444;43.534;-5.674;2023-04-06T12:50:58;8.25;;;3.15;;
72437;SDS011;60444;43.534;-5.674;2023-04-06T12:53:24;6.53;;;3.00;;
72437;SDS011;60444;43.534;-5.674;2023-04-06T12:55:50;7.70;;;3.15;;
72437;SDS011;60444;43.534;-5.674;2023-04-06T12:58:16;10.05;;;3.40;;
72437;SDS011;60444;43.534;-5.674;2023-04-06T13:00:43;7.30;;;2.90;;
72437;SDS011;60444;43.534;-5.674;2023-04-06T13:03:08;8.40;;;3.40;;
72437;SDS011;60444;43.534;-5.674;2023-04-06T13:05:34;8.38;;;4.00;;
72437;SDS011;60444;43.534;-5.674;2023-04-06T13:08:00;8.90;;;3.80;;
72437;SDS011;60444;43.534;-5.674;2023-04-06T13:10:26;10.48;;;4.10;;
72437;SDS011;60444;43.534;-5.674;2023-04-06T13:12:51;9.20;;;3.80;;
72437;SDS011;60444;43.534;-5.674;2023-04-06T13:15:17;8.37;;;3.97;;
72437;SDS011;60444;43.534;-5.674;2023-04-06T13:17:43;8.43;;;3.80;;
72437;SDS011;60444;43.534;-5.674;2023-04-06T13:20:08;10.98;;;4.32;;
72437;SDS011;60444;43.534;-5.674;2023-04-06T13:22:34;7.05;;;3.28;;
72437;SDS011;60444;43.534;-5.674;2023-04-06T13:25:00;8.70;;;4.17;;
72437;SDS011;60444;43.534;-5.674;2023-04-06T13:27:25;7.53;;;3.30;;
72437;SDS011;60444;43.534;-5.674;2023-04-06T13:29:52;8.30;;;3.25;;
72437;SDS011;60444;43.534;-5.674;2023-04-06T13:32:18;8.88;;;3.65;;
72437;SDS011;60444;43.534;-5.674;2023-04-06T13:34:43;9.97;;;4.47;;
72437;SDS011;60444;43.534;-5.674;2023-04-06T13:37:12;8.52;;;3.90;;
72437;SDS011;60444;43.534;-5.674;2023-04-06T13:39:38;9.60;;;3.80;;
72437;SDS011;60444;43.534;-5.674;2023-04-06T13:42:04;8.87;;;3.73;;
72437;SDS011;60444;43.534;-5.674;2023-04-06T13:44:30;9.63;;;3.40;;
72437;SDS011;60444;43.534;-5.674;2023-04-06T13:46:56;10.50;;;3.27;;
72437;SDS011;60444;43.534;-5.674;2023-04-06T13:49:21;8.77;;;3.72;;
72437;SDS011;60444;43.534;-5.674;2023-04-06T13:51:47;9.10;;;3.33;;
72437;SDS011;60444;43.534;-5.674;2023-04-06T13:54:15;8.27;;;3.75;;
72437;SDS011;60444;43.534;-5.674;2023-04-06T13:56:40;9.00;;;3.50;;
72437;SDS011;60444;43.534;-5.674;2023-04-06T13:59:06;9.85;;;3.20;;
72437;SDS011;60444;43.534;-5.674;2023-04-06T14:01:31;9.00;;;3.47;;
72437;SDS011;60444;43.534;-5.674;2023-04-06T14:03:57;9.40;;;3.90;;
72437;SDS011;60444;43.534;-5.674;2023-04-06T14:06:22;8.17;;;3.57;;
72437;SDS011;60444;43.534;-5.674;2023-04-06T14:08:48;9.95;;;3.40;;
72437;SDS011;60444;43.534;-5.674;2023-04-06T14:11:13;8.07;;;2.77;;
72437;SDS011;60444;43.534;-5.674;2023-04-06T14:13:39;10.75;;;2.17;;
72437;SDS011;60444;43.534;-5.674;2023-04-06T14:16:05;6.80;;;2.37;;
72437;SDS011;60444;43.534;-5.674;2023-04-06T14:18:32;6.50;;;2.13;;
72437;SDS011;60444;43.534;-5.674;2023-04-06T14:20:59;6.68;;;1.90;;
72437;SDS011;60444;43.534;-5.674;2023-04-06T14:23:27;7.53;;;2.50;;
72437;SDS011;60444;43.534;-5.674;2023-04-06T14:26:03;6.82;;;1.90;;
72437;SDS011;60444;43.534;-5.674;2023-04-06T14:28:29;5.73;;;1.80;;
72437;SDS011;60444;43.534;-5.674;2023-04-06T14:30:55;6.25;;;1.98;;
72437;SDS011;60444;43.534;-5.674;2023-04-06T14:33:21;6.00;;;2.05;;
72437;SDS011;60444;43.534;-5.674;2023-04-06T14:35:47;5.53;;;1.83;;